Terminal Aerodrome Forecast
Issued by NWS Wichita, KS

Home | Current Version | Previous Version | Text Only | Print | Product List | Glossary On
Versions: 1 2 3 4 5 6 7 8 9 10 11 12 13 14 15 16 17 18 19 20 21 22 23 24 25 26 27 28 29
000
FTUS43 KICT 280531
TAFICT
TAF
KICT 280531Z 2806/0106 12009KT P6SM -SN SCT025 BKN070
     FM281000 14010KT 5SM -SN OVC025
     FM281200 16012KT 3SM -SN OVC015
     FM281500 14009KT 1/2SM SN FG OVC007
     FM010300 13006KT 2SM -SN BKN004=

USA.gov is the U.S. government's official web portal to all federal, state and local government web resources and services.